Terminal Aerodrome Forecast
Issued by NWS

Home | Current Version | Previous Version | Text Only | Print | Product List | Glossary On
Versions: 1 2 3 4 5 6 7 8 9 10 11 12 13 14 15 16 17 18 19 20 21 22 23 24 25 26
000
FTUS44 KOUN 031732
TAFLAW
TAF
KLAW 031732Z 0318/0418 07010KT 4SM -RA OVC015
     FM032000 04010KT 4SM -RADZ OVC007
     FM040200 07005KT 3SM -DZ BR OVC006
     FM041300 35009KT P6SM OVC012=

USA.gov is the U.S. government's official web portal to all federal, state and local government web resources and services.